^^
Meteo Knjazevac Station Historical Data
Daily Summary for June 19, 2022 Units:  English    Metric   Both
Daily Weekly Monthly Yearly Custom
  High: Low: Average:
Temperature: 57.1 °F 48.6 °F 50.9 °F
Dew Point: 52.8 °F 48.3 °F 50.1 °F
Humidity: 99% 85.2% 97%
Wind Speed: 8.6mph 0mph 3.4mph
Wind Gust: 12mph - -
Wind- - WSW
Pressure: 29.89 in 29.71 in -
Precipitation: 0.00 in    
Historical Graphs
 
 
Tabular Data for June 19, 2022
Time Temperature Dew Point Pressure Wind Wind Speed Wind Gust Humidity Rainfall Rate (Hourly) solar Conditions
00:04 52.8 °F 52.5 °F 29.71 in NE 2.4 mph 3 mph 99% 0.00 in 0 W/m2
00:09 52.7 °F 52.4 °F 29.71 in NNE 2.9 mph 3 mph 99% 0.00 in 0 W/m2
00:14 52.7 °F 52.4 °F 29.71 in NW 2.9 mph 4 mph 99% 0.00 in 0 W/m2
00:19 52.7 °F 52.4 °F 29.71 in WNW 4.2 mph 5 mph 99% 0.00 in 0 W/m2
00:24 52.6 °F 52.3 °F 29.71 in WNW 2.8 mph 5 mph 99% 0.00 in 0 W/m2
00:29 52.3 °F 52.1 °F 29.71 in NW 2.6 mph 3 mph 99% 0.00 in 0 W/m2
00:34 52.1 °F 51.8 °F 29.71 in North 1 mph 3 mph 99% 0.00 in 0 W/m2
00:39 51.9 °F 51.6 °F 29.72 in Calm   2 mph 99% 0.00 in 0 W/m2
00:44 51.8 °F 51.5 °F 29.72 in Calm     99% 0.00 in 0 W/m2
00:49 51.6 °F 51.3 °F 29.72 in North 0.4 mph 0.7 mph 99% 0.00 in 0 W/m2
00:54 51.5 °F 51.2 °F 29.71 in North 1.3 mph 1 mph 99% 0.00 in 0 W/m2
00:59 51.4 °F 51.2 °F 29.71 in NNW 2.6 mph 3 mph 99% 0.00 in 0 W/m2
01:04 51.4 °F 51.1 °F 29.72 in NW 0.9 mph 3 mph 99% 0.00 in 0 W/m2
01:09 51.3 °F 51 °F 29.72 in WNW 1.4 mph 2 mph 99% 0.00 in 0 W/m2
01:14 51.2 °F 50.9 °F 29.73 in West 3.6 mph 4 mph 99% 0.00 in 0 W/m2
01:19 51 °F 50.7 °F 29.72 in WNW 4.2 mph 5 mph 99% 0.00 in 0 W/m2
01:24 50.8 °F 50.5 °F 29.73 in WNW 3.9 mph 5 mph 99% 0.00 in 0 W/m2
01:29 50.6 °F 50.4 °F 29.73 in WNW 3.7 mph 5 mph 99% 0.00 in 0 W/m2
01:34 50.5 °F 50.3 °F 29.73 in NW 3.5 mph 4 mph 99% 0.00 in 0 W/m2
01:39 50.4 °F 50.2 °F 29.74 in WNW 3.5 mph 4 mph 99% 0.00 in 0 W/m2
01:44 50.4 °F 50.1 °F 29.74 in West 4.1 mph 4 mph 99% 0.00 in 0 W/m2
01:49 50.4 °F 50.1 °F 29.74 in WNW 4.1 mph 5 mph 99% 0.00 in 0 W/m2
01:54 50.2 °F 49.9 °F 29.75 in NW 4.3 mph 5 mph 99% 0.00 in 0 W/m2
01:59 50.3 °F 50 °F 29.75 in NW 4.4 mph 6 mph 99% 0.00 in 0 W/m2
02:04 50.4 °F 50.1 °F 29.75 in NW 6.7 mph 5.1 mph 99% 0.00 in 0 W/m2
02:09 50.7 °F 50.4 °F 29.75 in NNW 6.3 mph 8 mph 99% 0.00 in 0 W/m2
02:14 51 °F 50.7 °F 29.75 in NW 6.3 mph 7 mph 99% 0.00 in 0 W/m2
02:19 51.1 °F 50.8 °F 29.76 in NW 4.5 mph 8 mph 99% 0.00 in 0 W/m2
02:24 51.1 °F 50.8 °F 29.76 in NW 3.5 mph 6 mph 99% 0.00 in 0 W/m2
02:29 50.9 °F 50.6 °F 29.76 in WNW 2.9 mph 5 mph 99% 0.00 in 0 W/m2
02:34 50.7 °F 50.4 °F 29.76 in WNW 2.4 mph 3 mph 99% 0.00 in 0 W/m2
02:39 50.3 °F 50 °F 29.76 in NNE 1.4 mph 3 mph 99% 0.00 in 0 W/m2
02:44 50 °F 49.7 °F 29.77 in NE 2 mph 2 mph 99% 0.00 in 0 W/m2
02:49 49.8 °F 49.6 °F 29.77 in North 1.5 mph 2 mph 99% 0.00 in 0 W/m2
02:54 49.7 °F 49.5 °F 29.77 in NNW 1.9 mph 2 mph 99% 0.00 in 0 W/m2
02:59 49.6 °F 49.4 °F 29.78 in NW 1.6 mph 3 mph 99% 0.00 in 0 W/m2
03:04 49.6 °F 49.4 °F 29.78 in WNW 1 mph 3 mph 99% 0.00 in 0 W/m2
03:09 49.6 °F 49.4 °F 29.78 in WNW 2 mph 2 mph 99% 0.00 in 0 W/m2
03:14 49.6 °F 49.4 °F 29.78 in WNW 1.5 mph 3 mph 99% 0.00 in 0 W/m2
03:19 49.6 °F 49.4 °F 29.78 in NW 0.8 mph 2 mph 99% 0.00 in 0 W/m2
03:24 49.8 °F 49.6 °F 29.78 in NNW 2 mph 2 mph 99% 0.00 in 0 W/m2
03:29 49.8 °F 49.6 °F 29.78 in NNW 4 mph 5 mph 99% 0.00 in 0 W/m2
03:34 50 °F 49.7 °F 29.78 in NW 4.1 mph 6 mph 99% 0.00 in 0 W/m2
03:39 50 °F 49.7 °F 29.78 in NW 4.3 mph 7 mph 99% 0.00 in 0 W/m2
03:44 49.9 °F 49.7 °F 29.79 in West 4.6 mph 6 mph 99% 0.00 in 0 W/m2
03:49 49.4 °F 49.2 °F 29.79 in WSW 4.8 mph 5 mph 99% 0.00 in 0 W/m2
03:54 49.1 °F 48.8 °F 29.79 in SW 5 mph 6 mph 99% 0.00 in 0 W/m2
03:59 49.1 °F 48.8 °F 29.79 in SW 5.7 mph 6 mph 99% 0.00 in 0 W/m2
04:04 49.1 °F 48.8 °F 29.79 in SW 5.4 mph 6 mph 99% 0.00 in 0 W/m2
04:09 49.3 °F 49 °F 29.80 in SW 5.8 mph 6 mph 99% 0.00 in 0 W/m2
04:14 49.5 °F 49.2 °F 29.80 in SW 5.7 mph 6 mph 99% 0.00 in 0 W/m2
04:19 49.5 °F 49.3 °F 29.80 in WSW 7.1 mph 7 mph 99% 0.00 in 0 W/m2
04:24 49.6 °F 49.3 °F 29.81 in West 8.6 mph 9 mph 98.6% 0.00 in 0 W/m2
04:29 49.8 °F 49.3 °F 29.81 in West 8 mph 12 mph 98% 0.00 in 0 W/m2
04:34 49.8 °F 48.9 °F 29.81 in West 8.5 mph 10 mph 96.5% 0.00 in 0 W/m2
04:39 49.9 °F 48.8 °F 29.81 in West 7.3 mph 9 mph 96% 0.00 in 0 W/m2
04:44 49.8 °F 48.7 °F 29.81 in West 7.7 mph 8 mph 96% 0.00 in 0 W/m2
04:49 49.8 °F 48.7 °F 29.82 in West 5.8 mph 9 mph 96% 0.00 in 0 W/m2
04:54 49.8 °F 48.7 °F 29.82 in West 6.6 mph 7 mph 96% 0.00 in 0 W/m2
04:59 49.7 °F 48.6 °F 29.82 in West 7.5 mph 8 mph 96% 0.00 in 0 W/m2
05:04 49.6 °F 48.5 °F 29.82 in WSW 5.8 mph 8 mph 96% 0.00 in 0 W/m2
05:09 49.6 °F 48.6 °F 29.82 in SW 4.4 mph 7 mph 96.4% 0.00 in 0 W/m2
05:14 49.5 °F 49 °F 29.82 in SSW 2.9 mph 5 mph 98.4% 0.00 in 0 W/m2
05:19 49.3 °F 49 °F 29.82 in SSW 2.3 mph 4 mph 99% 0.00 in 0 W/m2
05:24 49.3 °F 49 °F 29.82 in SW 3.4 mph 3 mph 99% 0.00 in 0 W/m2
05:29 49.4 °F 48.7 °F 29.83 in SW 4.9 mph 5 mph 97.5% 0.00 in 0 W/m2
05:34 49.6 °F 48.6 °F 29.83 in WSW 3.4 mph 6 mph 96.4% 0.00 in 0 W/m2
05:39 49.5 °F 49 °F 29.83 in SW 3.2 mph 4 mph 98.2% 0.00 in 0 W/m2
05:44 49.5 °F 49.2 °F 29.83 in South 2.3 mph 4 mph 99% 0.00 in 0 W/m2
05:49 49.5 °F 49.2 °F 29.83 in NNE 2.3 mph 3 mph 99% 0.00 in 0 W/m2
05:54 49.4 °F 49.1 °F 29.83 in NNW 1.5 mph 3 mph 99% 0.00 in 0 W/m2
05:59 49.3 °F 49 °F 29.83 in WNW 2.5 mph 3 mph 99% 0.00 in 0 W/m2
06:04 49.3 °F 49 °F 29.83 in SW 2.2 mph 3 mph 99% 0.00 in 0 W/m2
06:09 49.3 °F 49 °F 29.83 in SW 2.1 mph 2 mph 99% 0.00 in 0 W/m2
06:14 49.2 °F 48.9 °F 29.83 in WSW 1.9 mph 3 mph 99% 0.00 in 0 W/m2
06:19 49.3 °F 49 °F 29.83 in SSE 3.6 mph 3 mph 99% 0.00 in 0 W/m2
06:24 49.3 °F 49 °F 29.83 in East 3 mph 5 mph 99% 0.00 in 2 W/m2
06:29 49.2 °F 48.9 °F 29.83 in ENE 2.3 mph 3 mph 99% 0.00 in 3 W/m2
06:34 49.1 °F 48.8 °F 29.84 in ENE 2.1 mph 3 mph 99% 0.00 in 4 W/m2
06:39 49 °F 48.7 °F 29.84 in SSW 2.2 mph 2 mph 99% 0.00 in 6 W/m2
06:44 48.9 °F 48.7 °F 29.85 in WSW 3.8 mph 2.9 mph 99% 0.00 in 10 W/m2
06:49 48.8 °F 48.6 °F 29.85 in WSW 2.5 mph 5 mph 99% 0.00 in 18 W/m2
06:54 48.7 °F 48.5 °F 29.85 in WSW 2.7 mph 3 mph 99% 0.00 in 25 W/m2
06:59 48.7 °F 48.5 °F 29.85 in WSW 3.4 mph 4 mph 99% 0.00 in 39 W/m2
07:04 48.7 °F 48.4 °F 29.85 in WSW 3.8 mph 4 mph 99% 0.00 in 43 W/m2
07:09 48.6 °F 48.3 °F 29.86 in WSW 5 mph 5 mph 99% 0.00 in 50 W/m2
07:14 48.7 °F 48.5 °F 29.86 in WSW 5.2 mph 6 mph 99% 0.00 in 53 W/m2
07:19 48.8 °F 48.6 °F 29.86 in SW 2.6 mph 6 mph 99% 0.00 in 55 W/m2
07:24 48.9 °F 48.7 °F 29.86 in WSW 2.2 mph 2 mph 99% 0.00 in 69 W/m2
07:29 49.1 °F 48.8 °F 29.87 in West 2.2 mph 3 mph 99% 0.00 in 72 W/m2
07:34 49.3 °F 49 °F 29.87 in North 1.4 mph 3 mph 99% 0.00 in 95 W/m2
07:39 49.5 °F 49.3 °F 29.87 in NE 2.4 mph 3 mph 99% 0.00 in 106 W/m2
07:44 49.6 °F 49.4 °F 29.87 in NE 2.1 mph 3 mph 99% 0.00 in 93 W/m2
07:49 49.7 °F 49.5 °F 29.87 in West 2.4 mph 3 mph 99% 0.00 in 92 W/m2
07:54 49.8 °F 49.6 °F 29.87 in WSW 2.1 mph 3 mph 99% 0.00 in 88 W/m2
07:59 50 °F 49.7 °F 29.87 in WSW 3 mph 3 mph 99% 0.00 in 92 W/m2
08:04 50.1 °F 49.8 °F 29.88 in WSW 3 mph 3 mph 99% 0.00 in 92 W/m2
08:09 50.2 °F 49.9 °F 29.88 in West 3.7 mph 4 mph 99% 0.00 in 104 W/m2
08:14 50.3 °F 50 °F 29.88 in WSW 3.2 mph 5 mph 99% 0.00 in 109 W/m2
08:19 50.4 °F 50.1 °F 29.88 in WSW 4 mph 4 mph 99% 0.00 in 92 W/m2
08:24 50.5 °F 50.1 °F 29.88 in West 4.1 mph 5 mph 98.5% 0.00 in 125 W/m2
08:29 50.6 °F 50.1 °F 29.88 in WSW 3.5 mph 5 mph 98% 0.00 in 280 W/m2
08:34 51.3 °F 50.7 °F 29.88 in WSW 3.8 mph 5 mph 98% 0.00 in 375 W/m2
08:39 52.3 °F 51.4 °F 29.88 in WSW 4.1 mph 5 mph 96.9% 0.00 in 426 W/m2
08:44 53.2 °F 51.9 °F 29.88 in West 3.4 mph 5 mph 95.4% 0.00 in 378 W/m2
08:49 53.7 °F 51.8 °F 29.88 in WSW 3 mph 3 mph 93.4% 0.00 in 355 W/m2
08:54 53.8 °F 51.7 °F 29.88 in WSW 2.8 mph 4 mph 92.6% 0.00 in 274 W/m2
08:59 53.8 °F 51.9 °F 29.88 in SW 2.6 mph 4 mph 93.4% 0.00 in 271 W/m2
09:04 53.8 °F 51.8 °F 29.88 in WSW 3.4 mph 3 mph 93% 0.00 in 259 W/m2
09:09 53.8 °F 51.8 °F 29.88 in WSW 2.7 mph 3 mph 93% 0.00 in 199 W/m2
09:14 54 °F 51.7 °F 29.88 in West 1.7 mph 3 mph 92.3% 0.00 in 207 W/m2
09:19 53.9 °F 51.3 °F 29.88 in WNW 2.7 mph 2 mph 91% 0.00 in 146 W/m2
09:24 53.7 °F 51.2 °F 29.88 in West 2 mph 3 mph 91.3% 0.00 in 159 W/m2
09:29 53.7 °F 51.6 °F 29.88 in West 2.5 mph 2 mph 92.9% 0.00 in 195 W/m2
09:34 53.9 °F 51.9 °F 29.88 in West 3.2 mph 3 mph 93.2% 0.00 in 287 W/m2
09:39 54.2 °F 52 °F 29.88 in WSW 2.1 mph 3 mph 92.3% 0.00 in 633 W/m2
09:44 55.2 °F 52.7 °F 29.88 in West 2.3 mph 2 mph 91.5% 0.00 in 553 W/m2
09:48 56 °F 52.8 °F 29.88 in WNW 3.6 mph 2.5 mph 89.3% 0.00 in 548 W/m2
09:54 56.1 °F 52.7 °F 29.89 in SW 2.7 mph 5 mph 88.3% 0.00 in 429 W/m2
09:59 55.9 °F 52.4 °F 29.89 in West 2.4 mph 3 mph 88% 0.00 in 279 W/m2
10:04 55.8 °F 52.3 °F 29.88 in NW 2.5 mph 4 mph 88% 0.00 in 252 W/m2
10:09 55.8 °F 52.2 °F 29.89 in WNW 2.9 mph 3 mph 87.6% 0.00 in 233 W/m2
10:14 55.6 °F 51.7 °F 29.89 in WNW 2.1 mph 4 mph 86.6% 0.00 in 224 W/m2
10:19 55.7 °F 51.8 °F 29.89 in WSW 2.7 mph 4 mph 86.7% 0.00 in 447 W/m2
10:24 56.1 °F 51.7 °F 29.89 in SW 2.3 mph 3 mph 85.2% 0.00 in 653 W/m2
10:29 57.1 °F 52.8 °F 29.88 in SW 3.5 mph 3.1 mph 85.5% 0.00 in 600 W/m2
Knjazevac, Serbia
Compliments of Weather Underground - 2 mb